Time;durP1;ratioP1;P1;durP2;ratioP2;P2;SDS_P1;SDS_P2;PMS_P1;PMS_P2;Temp;Humidity;BMP_temperature;BMP_pressure;BME280_temperature;BME280_humidity;BME280_pressure;Samples;Min_cycle;Max_cycle;Signal;HPM_P1;HPM_P2
2022/12/24 00:01:19;;;;;;;35.33;3.80;;;10.50;99.90;;;;;;5013277;28;20175;-52
2022/12/24 00:03:45;;;;;;;22.20;3.93;;;10.20;99.90;;;;;;5013038;28;20531;-54
2022/12/24 00:06:20;;;;;;;36.67;4.03;;;10.50;99.90;;;;;;5013150;28;20182;-54
2022/12/24 00:08:46;;;;;;;27.03;3.73;;;10.50;99.90;;;;;;5013004;28;20300;-52
2022/12/24 00:11:11;;;;;;;34.33;4.30;;;10.60;99.90;;;;;;5013050;28;20300;-53
2022/12/24 00:13:38;;;;;;;32.33;3.83;;;;;;;;;;5013006;28;20626;-52
2022/12/24 00:16:04;;;;;;;34.03;4.13;;;10.40;99.90;;;;;;5012928;28;20177;-52
2022/12/24 00:18:30;;;;;;;27.87;4.43;;;10.30;99.90;;;;;;5012811;28;20228;-52
2022/12/24 00:20:55;;;;;;;25.93;3.33;;;10.70;99.90;;;;;;5011828;28;20561;-50
2022/12/24 00:23:21;;;;;;;25.57;3.57;;;10.30;99.90;;;;;;5012571;28;20202;-53
2022/12/24 00:25:47;;;;;;;28.20;3.67;;;10.60;99.90;;;;;;5012443;28;20189;-52
2022/12/24 00:28:14;;;;;;;32.50;3.77;;;10.30;99.90;;;;;;5011789;28;20183;-51
2022/12/24 00:30:41;;;;;;;22.03;3.20;;;10.40;99.90;;;;;;5011618;28;20171;-51
2022/12/24 00:33:07;;;;;;;26.03;3.57;;;10.80;99.90;;;;;;5012305;28;20313;-51
2022/12/24 00:35:34;;;;;;;21.93;2.97;;;10.60;99.90;;;;;;5007796;28;20760;-51
2022/12/24 00:38:02;;;;;;;23.50;3.53;;;;;;;;;;5009880;28;20292;-50
2022/12/24 00:40:28;;;;;;;29.87;3.27;;;;;;;;;;4999412;28;20237;-51
2022/12/24 00:42:54;;;;;;;29.03;2.87;;;;;;;;;;5010059;28;20174;-52
2022/12/24 00:45:20;;;;;;;29.17;3.70;;;10.80;99.90;;;;;;5000370;28;20779;-51
2022/12/24 00:47:45;;;;;;;24.97;4.57;;;10.70;99.90;;;;;;5012144;28;20182;-51
2022/12/24 00:50:11;;;;;;;26.17;3.70;;;10.70;99.90;;;;;;5004310;28;20755;-52
2022/12/24 00:52:37;;;;;;;30.37;4.33;;;;;;;;;;5006501;28;20583;-50
2022/12/24 00:55:03;;;;;;;28.53;2.57;;;10.90;99.90;;;;;;5012091;28;20166;-53
2022/12/24 00:57:29;;;;;;;29.17;3.73;;;11.10;99.90;;;;;;5011735;28;20703;-51
2022/12/24 00:59:55;;;;;;;32.13;3.60;;;11.00;99.90;;;;;;5011787;28;20178;-54
2022/12/24 01:02:21;;;;;;;22.03;3.60;;;;;;;;;;5011532;28;20179;-52
2022/12/24 01:07:30;;;;;;;28.07;3.67;;;10.80;99.90;;;;;;5001306;28;20198;-53
2022/12/24 01:09:56;;;;;;;28.07;3.47;;;;;;;;;;5007895;28;20186;-54
2022/12/24 01:12:23;;;;;;;26.43;2.97;;;;;;;;;;5011340;28;20182;-52
2022/12/24 01:14:49;;;;;;;29.50;3.53;;;;;;;;;;5011644;28;20181;-52
2022/12/24 01:17:14;;;;;;;25.67;3.67;;;10.80;99.90;;;;;;5001129;28;20187;-53
2022/12/24 01:19:40;;;;;;;30.00;3.37;;;10.70;99.90;;;;;;5010979;28;20190;-54
2022/12/24 01:22:06;;;;;;;33.57;4.00;;;;;;;;;;5011374;28;20702;-53
2022/12/24 01:24:32;;;;;;;28.23;3.00;;;;;;;;;;5003185;28;20255;-52
2022/12/24 01:26:58;;;;;;;26.30;3.03;;;;;;;;;;4998484;28;20263;-50
2022/12/24 01:29:24;;;;;;;27.97;4.13;;;;;;;;;;5011314;28;20277;-54
2022/12/24 01:31:50;;;;;;;29.03;4.37;;;;;;;;;;5001274;28;20268;-50
2022/12/24 01:34:16;;;;;;;19.97;2.80;;;10.70;99.90;;;;;;5008921;28;20193;-51
2022/12/24 01:36:42;;;;;;;26.87;3.27;;;;;;;;;;5000819;28;20179;-51
2022/12/24 01:39:08;;;;;;;26.67;3.70;;;;;;;;;;5001187;28;20321;-51
2022/12/24 01:44:26;;;;;;;26.60;3.00;;;10.70;99.90;;;;;;4992272;28;20234;-50
2022/12/24 01:47:19;;;;;;;19.40;3.50;;;10.30;99.90;;;;;;5006723;28;20185;-50
2022/12/24 01:49:56;;;;;;;26.57;3.67;;;10.50;99.90;;;;;;5010024;28;20214;-54
2022/12/24 01:52:34;;;;;;;28.83;3.03;;;10.40;99.90;;;;;;5011038;28;20668;-56
2022/12/24 01:55:08;;;;;;;23.63;2.93;;;10.50;99.90;;;;;;5010882;28;20198;-53
2022/12/24 01:57:40;;;;;;;16.80;2.20;;;10.30;99.90;;;;;;5009853;28;20305;-52
2022/12/24 02:00:10;;;;;;;30.17;3.70;;;10.50;99.90;;;;;;5011229;28;20221;-54
2022/12/24 02:02:39;;;;;;;40.30;4.10;;;10.30;99.90;;;;;;5011257;28;20194;-51
2022/12/24 02:05:21;;;;;;;20.80;2.83;;;10.30;99.90;;;;;;5011225;28;20257;-51
2022/12/24 02:07:47;;;;;;;25.73;3.17;;;;;;;;;;5011253;28;20170;-51
2022/12/24 02:10:14;;;;;;;18.93;2.30;;;;;;;;;;5011247;28;20182;-51
2022/12/24 02:12:41;;;;;;;29.60;3.33;;;10.50;99.90;;;;;;5011257;28;20166;-51
2022/12/24 02:15:09;;;;;;;29.63;3.47;;;10.10;99.90;;;;;;5010987;28;20219;-53
2022/12/24 02:17:35;;;;;;;19.27;2.97;;;;;;;;;;5011445;28;20256;-54
2022/12/24 02:20:25;;;;;;;25.20;2.80;;;10.30;99.90;;;;;;5011042;28;20170;-51
2022/12/24 02:22:51;;;;;;;25.67;3.30;;;;;;;;;;5011082;28;20265;-51
2022/12/24 02:25:48;;;;;;;20.67;3.30;;;10.70;99.90;;;;;;5008628;28;20600;-51
2022/12/24 02:28:14;;;;;;;29.60;2.90;;;;;;;;;;5010517;28;20167;-52
2022/12/24 02:31:01;;;;;;;23.60;2.77;;;10.30;99.90;;;;;;5010570;28;20189;-51
2022/12/24 02:33:37;;;;;;;24.27;3.00;;;10.20;99.90;;;;;;5003199;28;20213;-53
2022/12/24 02:36:26;;;;;;;32.83;3.23;;;10.30;99.90;;;;;;5010670;28;20189;-51
2022/12/24 02:39:04;;;;;;;15.53;2.80;;;10.10;99.90;;;;;;5010452;28;20297;-53
2022/12/24 02:44:23;;;;;;;23.40;3.00;;;10.00;99.90;;;;;;5011130;28;20708;-54
2022/12/24 02:46:49;;;;;;;24.23;3.23;;;10.20;99.90;;;;;;5010715;28;20178;-53
2022/12/24 02:49:15;;;;;;;29.80;2.80;;;;;;;;;;5009888;28;20218;-54
2022/12/24 02:51:41;;;;;;;28.13;2.60;;;9.90;99.90;;;;;;5008722;28;20699;-51
2022/12/24 02:54:07;;;;;;;25.47;3.00;;;10.00;99.90;;;;;;5012086;28;20178;-51
2022/12/24 02:56:53;;;;;;;21.97;2.83;;;9.80;99.90;;;;;;5013077;28;20185;-52
2022/12/24 03:00:16;;;;;;;25.77;2.73;;;9.90;99.90;;;;;;5003010;28;20301;-50
2022/12/24 03:03:11;;;;;;;22.50;2.40;;;9.40;99.90;;;;;;4991379;28;20230;-50
2022/12/24 03:05:45;;;;;;;26.27;3.33;;;9.90;99.90;;;;;;5007487;28;20194;-50
2022/12/24 03:08:34;;;;;;;22.77;2.60;;;10.00;99.90;;;;;;5013578;28;20666;-55
2022/12/24 03:11:08;;;;;;;29.13;3.30;;;10.00;99.90;;;;;;5013760;28;20198;-53
2022/12/24 03:13:33;;;;;;;25.60;3.27;;;9.60;99.90;;;;;;5013948;28;20194;-51
2022/12/24 03:16:03;;;;;;;29.80;3.20;;;10.00;99.90;;;;;;5013573;28;20175;-53
2022/12/24 03:18:29;;;;;;;27.13;3.30;;;10.00;99.90;;;;;;5015768;28;20228;-51
2022/12/24 03:21:00;;;;;;;27.83;3.10;;;9.90;99.90;;;;;;5006017;28;20162;-54
2022/12/24 03:23:26;;;;;;;30.13;3.63;;;;;;;;;;5013847;28;20174;-51
2022/12/24 03:25:53;;;;;;;31.17;2.90;;;9.70;99.90;;;;;;5012483;28;20201;-51
2022/12/24 03:28:22;;;;;;;29.33;3.33;;;9.80;99.90;;;;;;5010254;28;20182;-51
2022/12/24 03:30:48;;;;;;;24.57;3.23;;;9.60;99.90;;;;;;5013101;28;20673;-51
2022/12/24 03:33:15;;;;;;;36.43;3.63;;;9.80;99.90;;;;;;5010849;28;20297;-52
2022/12/24 03:35:41;;;;;;;24.77;3.13;;;9.80;99.90;;;;;;5013686;28;20217;-50
2022/12/24 03:38:07;;;;;;;29.00;3.17;;;;;;;;;;4997319;28;20304;-51
2022/12/24 03:40:33;;;;;;;25.33;2.90;;;9.00;99.90;;;;;;5012456;28;20175;-50
2022/12/24 03:42:59;;;;;;;28.53;3.20;;;;;;;;;;5013252;28;20544;-51
2022/12/24 03:45:25;;;;;;;34.13;3.53;;;;;;;;;;5013384;28;20175;-52
2022/12/24 03:47:50;;;;;;;40.33;4.50;;;9.50;99.90;;;;;;5013027;28;20183;-50
2022/12/24 03:50:16;;;;;;;35.20;3.20;;;9.20;99.90;;;;;;4995074;28;20251;-51
2022/12/24 03:52:42;;;;;;;32.13;3.43;;;9.50;99.90;;;;;;5010315;28;20189;-52
2022/12/24 03:55:08;;;;;;;31.40;4.10;;;9.00;99.90;;;;;;5013065;28;20175;-54
2022/12/24 03:57:34;;;;;;;27.83;3.50;;;9.40;99.90;;;;;;4993621;28;20211;-51
2022/12/24 04:00:00;;;;;;;35.10;3.27;;;9.30;99.90;;;;;;4999985;28;20369;-50
2022/12/24 04:02:25;;;;;;;31.63;4.10;;;9.00;99.90;;;;;;5013337;28;20178;-50
2022/12/24 04:04:51;;;;;;;37.07;4.23;;;;;;;;;;5012992;28;20565;-50
2022/12/24 04:07:17;;;;;;;26.70;2.93;;;;;;;;;;5012616;28;20269;-50
2022/12/24 04:09:43;;;;;;;32.40;3.73;;;9.20;99.90;;;;;;4996694;28;20178;-50
2022/12/24 04:12:09;;;;;;;30.70;3.23;;;9.40;99.90;;;;;;5005550;28;20645;-50
2022/12/24 04:14:35;;;;;;;32.63;3.83;;;;;;;;;;5012323;28;20677;-50
2022/12/24 04:17:01;;;;;;;30.77;3.50;;;;;;;;;;5012856;28;20175;-52
2022/12/24 04:19:27;;;;;;;45.27;3.83;;;;;;;;;;5004916;28;20210;-50
2022/12/24 04:21:53;;;;;;;26.77;3.30;;;;;;;;;;5010119;28;20179;-54
2022/12/24 04:24:18;;;;;;;30.57;3.63;;;9.40;99.90;;;;;;5006875;28;20655;-50
2022/12/24 04:26:44;;;;;;;26.67;3.60;;;;;;;;;;5012422;28;20186;-52
2022/12/24 04:29:10;;;;;;;33.47;4.03;;;9.90;99.90;;;;;;5010336;28;20190;-53
2022/12/24 04:31:36;;;;;;;19.90;3.33;;;9.80;99.90;;;;;;5012036;28;20281;-51
2022/12/24 04:34:02;;;;;;;28.13;3.97;;;;;;;;;;5012249;28;20194;-51
2022/12/24 04:36:28;;;;;;;26.67;3.17;;;;;;;;;;5012529;28;20174;-52
2022/12/24 04:38:54;;;;;;;33.87;3.50;;;;;;;;;;5011955;28;20268;-52
2022/12/24 04:41:22;;;;;;;28.23;3.03;;;9.30;99.90;;;;;;5012105;28;20178;-52
2022/12/24 04:43:48;;;;;;;33.47;3.50;;;9.30;99.90;;;;;;5012384;28;20230;-52
2022/12/24 04:46:17;;;;;;;29.33;3.43;;;9.30;99.90;;;;;;5007303;28;20187;-52
2022/12/24 04:48:44;;;;;;;32.87;3.80;;;9.30;99.90;;;;;;5012065;28;20233;-51
2022/12/24 04:51:11;;;;;;;28.80;3.03;;;9.30;99.90;;;;;;5011896;28;20256;-54
2022/12/24 04:53:38;;;;;;;41.87;3.50;;;9.30;99.90;;;;;;5012106;28;20221;-52
2022/12/24 04:56:17;;;;;;;28.30;2.83;;;9.30;99.90;;;;;;4999195;28;20289;-51
2022/12/24 04:58:43;;;;;;;37.03;3.93;;;;;;;;;;5010659;28;20228;-52
2022/12/24 05:01:18;;;;;;;22.47;3.23;;;9.20;99.90;;;;;;5011854;28;20202;-52
2022/12/24 05:03:44;;;;;;;34.50;4.07;;;9.30;99.90;;;;;;5011852;28;20186;-51
2022/12/24 05:06:12;;;;;;;24.20;3.33;;;9.30;99.90;;;;;;5007461;28;20187;-52
2022/12/24 05:08:38;;;;;;;39.07;3.70;;;9.20;99.90;;;;;;5000570;28;20196;-54
2022/12/24 05:11:04;;;;;;;20.03;2.87;;;9.10;99.90;;;;;;5011975;28;20174;-52
2022/12/24 05:13:31;;;;;;;27.00;3.30;;;9.00;99.90;;;;;;4994366;28;20282;-52
2022/12/24 05:15:57;;;;;;;24.37;3.17;;;;;;;;;;5002745;28;20175;-52
2022/12/24 05:18:23;;;;;;;21.40;2.70;;;9.00;99.90;;;;;;5007520;28;20264;-51
2022/12/24 05:20:50;;;;;;;28.73;3.80;;;;;;;;;;5002036;28;20185;-51
2022/12/24 05:26:22;;;;;;;38.43;3.37;;;8.70;99.90;;;;;;5011563;28;20228;-51
2022/12/24 05:28:50;;;;;;;30.23;3.90;;;8.20;99.90;;;;;;5011609;28;20182;-51
2022/12/24 05:31:17;;;;;;;33.97;3.30;;;8.20;99.90;;;;;;5011225;28;20206;-51
2022/12/24 05:33:43;;;;;;;26.23;3.87;;;8.40;99.90;;;;;;5010872;28;20638;-51
2022/12/24 05:36:09;;;;;;;25.87;3.20;;;8.40;99.90;;;;;;5011374;28;20185;-51
2022/12/24 05:38:35;;;;;;;21.17;2.80;;;8.20;99.90;;;;;;5011345;28;20357;-51
2022/12/24 05:41:01;;;;;;;26.10;3.47;;;;;;;;;;5011037;28;20680;-50
2022/12/24 05:43:27;;;;;;;26.53;3.60;;;;;;;;;;5004715;28;20547;-51
2022/12/24 05:45:59;;;;;;;22.47;2.43;;;8.20;99.90;;;;;;4994983;28;20175;-51
2022/12/24 05:48:25;;;;;;;28.03;3.17;;;8.20;99.90;;;;;;5010917;28;20186;-50
2022/12/24 05:50:51;;;;;;;27.97;3.10;;;8.00;99.90;;;;;;5010294;28;20665;-51
2022/12/24 05:53:18;;;;;;;25.63;3.70;;;;;;;;;;5010989;28;20198;-50
2022/12/24 05:55:44;;;;;;;40.20;4.03;;;7.80;99.90;;;;;;5010788;28;20187;-53
2022/12/24 05:58:10;;;;;;;28.97;3.37;;;;;;;;;;5010981;28;20225;-53
2022/12/24 06:00:36;;;;;;;25.43;2.73;;;7.80;99.90;;;;;;5011051;28;20174;-51
2022/12/24 06:03:02;;;;;;;24.97;3.17;;;8.10;99.90;;;;;;5011265;28;20240;-51
2022/12/24 06:05:27;;;;;;;24.37;3.43;;;8.00;99.90;;;;;;5011232;28;20237;-50
2022/12/24 06:07:53;;;;;;;23.70;2.93;;;;;;;;;;5005295;28;20589;-51
2022/12/24 06:10:19;;;;;;;25.40;3.00;;;8.40;99.90;;;;;;5009662;28;20247;-51
2022/12/24 06:12:45;;;;;;;21.53;3.27;;;;;;;;;;5011318;28;20707;-51
2022/12/24 06:15:11;;;;;;;34.23;2.73;;;;;;;;;;4991639;28;20780;-51
2022/12/24 06:17:37;;;;;;;28.97;3.63;;;;;;;;;;4991381;28;20203;-51
2022/12/24 06:20:03;;;;;;;22.80;3.23;;;7.70;99.90;;;;;;4991534;28;20198;-52
2022/12/24 06:22:29;;;;;;;24.00;2.90;;;;;;;;;;5006362;28;20720;-53
2022/12/24 06:24:55;;;;;;;18.93;2.57;;;;;;;;;;4991355;28;20262;-53
2022/12/24 06:27:21;;;;;;;22.37;2.70;;;;;;;;;;4991368;28;20250;-50
2022/12/24 06:29:47;;;;;;;22.77;2.77;;;7.30;99.90;;;;;;4994194;28;20270;-52
2022/12/24 06:32:13;;;;;;;35.93;3.30;;;;;;;;;;5005682;28;20728;-52
2022/12/24 06:34:39;;;;;;;38.33;3.57;;;;;;;;;;5014619;28;20190;-51
2022/12/24 06:37:05;;;;;;;28.57;3.23;;;;;;;;;;5005716;28;20206;-50
2022/12/24 06:39:31;;;;;;;36.10;3.23;;;;;;;;;;4997139;28;20211;-52
2022/12/24 06:41:57;;;;;;;27.40;2.67;;;7.50;99.90;;;;;;5014834;28;20806;-50
2022/12/24 06:44:23;;;;;;;31.13;2.83;;;;;;;;;;5014486;28;20206;-51
2022/12/24 06:46:49;;;;;;;36.67;3.20;;;;;;;;;;5014169;28;20221;-50
2022/12/24 06:49:15;;;;;;;28.63;2.30;;;;;;;;;;5012640;28;20218;-51
2022/12/24 06:51:41;;;;;;;26.87;2.57;;;7.40;99.90;;;;;;5014391;28;20216;-51
2022/12/24 06:54:07;;;;;;;20.93;2.97;;;;;;;;;;5014541;28;20521;-52
2022/12/24 06:56:33;;;;;;;30.67;3.00;;;;;;;;;;5014334;28;20185;-52
2022/12/24 06:58:59;;;;;;;23.87;3.03;;;7.30;99.90;;;;;;4999464;28;20254;-51
2022/12/24 07:01:24;;;;;;;24.80;2.90;;;7.20;99.90;;;;;;5004307;28;20737;-53
2022/12/24 07:03:50;;;;;;;29.67;3.23;;;7.70;99.90;;;;;;5006033;28;20206;-54
2022/12/24 07:06:25;;;;;;;24.43;2.87;;;7.30;99.90;;;;;;5013915;28;20830;-52
2022/12/24 07:08:51;;;;;;;27.23;2.93;;;;;;;;;;5004149;28;20679;-52
2022/12/24 07:11:17;;;;;;;36.43;3.07;;;7.60;99.90;;;;;;5001064;28;20201;-52
2022/12/24 07:13:43;;;;;;;26.33;3.97;;;7.30;99.90;;;;;;5006528;28;20708;-52
2022/12/24 07:16:09;;;;;;;27.10;3.00;;;;;;;;;;5014046;28;20240;-53
2022/12/24 07:18:35;;;;;;;37.60;3.17;;;7.60;99.90;;;;;;4999674;28;20286;-52
2022/12/24 07:21:03;;;;;;;38.00;3.47;;;7.70;99.90;;;;;;4999251;28;20642;-53
2022/12/24 07:23:30;;;;;;;28.47;2.83;;;;;;;;;;5013832;28;20187;-53
2022/12/24 07:26:05;;;;;;;34.00;2.83;;;7.70;99.90;;;;;;5013171;28;20654;-54
2022/12/24 07:28:31;;;;;;;35.87;3.17;;;;;;;;;;5012761;28;20182;-54
2022/12/24 07:30:57;;;;;;;28.53;3.47;;;;;;;;;;5013542;28;20173;-54
2022/12/24 07:33:24;;;;;;;26.97;3.03;;;;;;;;;;5013610;28;20179;-54
2022/12/24 07:36:00;;;;;;;34.73;3.00;;;7.60;99.90;;;;;;5013831;28;20280;-54
2022/12/24 07:38:26;;;;;;;32.73;3.70;;;;;;;;;;5013410;28;20210;-54
2022/12/24 07:40:52;;;;;;;27.53;2.53;;;;;;;;;;5012624;28;20256;-54
2022/12/24 07:43:18;;;;;;;38.47;3.83;;;7.80;99.90;;;;;;5013764;28;20236;-53
2022/12/24 07:45:44;;;;;;;31.23;3.50;;;;;;;;;;5013525;28;20178;-54
2022/12/24 07:48:10;;;;;;;35.40;3.50;;;;;;;;;;5013158;28;20174;-54
2022/12/24 07:50:36;;;;;;;28.57;3.40;;;;;;;;;;5013167;28;20315;-54
2022/12/24 07:53:02;;;;;;;45.03;4.03;;;;;;;;;;5013181;28;20210;-54
2022/12/24 07:55:28;;;;;;;24.10;3.33;;;;;;;;;;5013245;28;20634;-53
2022/12/24 07:57:54;;;;;;;23.47;3.20;;;;;;;;;;5012604;28;20210;-53
2022/12/24 08:00:20;;;;;;;30.43;2.63;;;;;;;;;;5005748;28;20289;-54
2022/12/24 08:02:46;;;;;;;41.60;3.93;;;7.80;99.90;;;;;;5003421;28;20178;-54
2022/12/24 08:05:12;;;;;;;27.03;3.47;;;7.90;99.90;;;;;;5010139;28;20226;-53
2022/12/24 08:07:37;;;;;;;32.67;3.43;;;7.70;99.90;;;;;;4993407;28;20171;-53
2022/12/24 08:10:03;;;;;;;25.33;2.63;;;;;;;;;;4993481;28;20630;-54
2022/12/24 08:12:29;;;;;;;37.33;3.70;;;;;;;;;;5007584;28;20178;-54
2022/12/24 08:14:55;;;;;;;47.40;6.07;;;;;;;;;;5012997;28;20171;-54
2022/12/24 08:17:21;;;;;;;34.37;3.97;;;;;;;;;;5012885;28;20232;-53
2022/12/24 08:19:48;;;;;;;36.63;3.43;;;;;;;;;;5012841;28;20181;-53
2022/12/24 08:22:14;;;;;;;25.50;2.90;;;7.80;99.90;;;;;;5012307;28;20182;-52
2022/12/24 08:24:40;;;;;;;37.27;9.50;;;;;;;;;;5012588;28;20245;-54
2022/12/24 08:27:06;;;;;;;42.17;4.47;;;;;;;;;;5012708;28;20209;-55
2022/12/24 08:29:32;;;;;;;37.03;5.63;;;;;;;;;;5012154;28;20182;-55
2022/12/24 08:31:58;;;;;;;31.73;2.97;;;;;;;;;;5012096;28;20850;-55
2022/12/24 08:34:24;;;;;;;29.17;5.77;;;;;;;;;;5012642;28;20174;-54
2022/12/24 08:36:50;;;;;;;33.27;3.80;;;;;;;;;;5012422;28;20552;-54
2022/12/24 08:39:16;;;;;;;31.80;2.83;;;7.70;99.90;;;;;;5012341;28;20206;-54
2022/12/24 08:41:42;;;;;;;20.30;2.37;;;;;;;;;;5012334;28;20185;-55
2022/12/24 08:44:07;;;;;;;34.83;3.30;;;7.70;99.90;;;;;;5012408;28;20186;-55
2022/12/24 08:46:33;;;;;;;30.63;3.40;;;7.60;99.90;;;;;;5012388;28;20171;-54
2022/12/24 08:48:59;;;;;;;34.90;3.63;;;8.20;99.90;;;;;;5012068;28;20728;-55
2022/12/24 08:51:24;;;;;;;25.30;3.80;;;7.70;99.90;;;;;;5011873;28;20197;-53
2022/12/24 08:53:50;;;;;;;28.93;3.47;;;;;;;;;;5009596;28;20517;-50
2022/12/24 08:56:16;;;;;;;25.67;3.13;;;8.00;99.90;;;;;;5006802;28;20190;-51
2022/12/24 08:58:42;;;;;;;28.43;3.67;;;;;;;;;;5012243;28;20225;-51
2022/12/24 09:01:13;;;;;;;27.67;3.33;;;7.70;99.90;;;;;;5012036;28;20185;-49
2022/12/24 09:03:39;;;;;;;30.83;3.00;;;;;;;;;;5011597;28;20182;-52
2022/12/24 09:06:06;;;;;;;25.30;3.10;;;7.70;99.90;;;;;;5011310;28;20198;-52
2022/12/24 09:08:32;;;;;;;21.97;2.90;;;7.60;99.90;;;;;;5011894;28;20249;-50
2022/12/24 09:11:09;;;;;;;22.40;3.00;;;7.50;99.90;;;;;;5011879;28;20257;-52
2022/12/24 09:13:35;;;;;;;20.30;2.57;;;;;;;;;;5011599;28;20257;-53
2022/12/24 09:16:01;;;;;;;26.80;2.60;;;7.50;99.90;;;;;;5010807;28;20254;-56
2022/12/24 09:18:27;;;;;;;41.20;4.00;;;;;;;;;;5011494;28;20219;-50
2022/12/24 09:21:14;;;;;;;29.93;3.10;;;;;;;;;;5011657;28;20175;-50
2022/12/24 09:23:42;;;;;;;27.23;3.70;;;7.70;99.90;;;;;;5011328;28;20236;-52
2022/12/24 09:26:16;;;;;;;29.13;3.33;;;7.80;99.90;;;;;;5011410;28;20182;-53
2022/12/24 09:28:42;;;;;;;23.47;3.97;;;;;;;;;;5010711;28;20262;-50
2022/12/24 09:31:09;;;;;;;35.40;4.23;;;7.80;99.90;;;;;;5010959;28;20170;-52
2022/12/24 09:33:36;;;;;;;25.47;3.60;;;;;;;;;;5011510;28;20181;-51
2022/12/24 09:36:02;;;;;;;24.97;3.90;;;;;;;;;;5011647;28;20182;-51
2022/12/24 09:38:29;;;;;;;25.70;3.57;;;;;;;;;;5011341;28;20314;-53
2022/12/24 09:40:56;;;;;;;27.10;3.43;;;8.00;99.90;;;;;;5011524;28;20166;-51
2022/12/24 09:43:25;;;;;;;23.63;3.20;;;8.00;99.90;;;;;;5011436;28;20629;-51
2022/12/24 09:46:08;;;;;;;22.47;4.30;;;8.20;99.90;;;;;;5011289;28;20232;-51
2022/12/24 09:48:39;;;;;;;22.73;4.00;;;8.10;99.90;;;;;;5010239;28;20170;-52
2022/12/24 09:51:11;;;;;;;37.17;4.60;;;8.30;99.90;;;;;;5009745;28;20229;-52
2022/12/24 09:53:42;;;;;;;17.90;2.90;;;8.10;99.90;;;;;;5010432;28;20174;-53
2022/12/24 09:56:21;;;;;;;14.87;3.13;;;8.30;99.90;;;;;;5009294;28;20224;-52
2022/12/24 09:59:02;;;;;;;20.97;3.67;;;8.10;99.90;;;;;;5009398;28;20241;-51
2022/12/24 10:01:33;;;;;;;30.80;3.90;;;8.50;99.90;;;;;;5011082;28;20174;-52
2022/12/24 10:04:01;;;;;;;27.50;4.93;;;;;;;;;;5010635;28;20648;-54
2022/12/24 10:06:44;;;;;;;18.77;3.17;;;8.50;99.90;;;;;;5008969;28;20198;-51
2022/12/24 10:09:19;;;;;;;22.93;4.33;;;;;;;;;;5003420;28;20806;-51
2022/12/24 10:12:13;;;;;;;25.30;3.50;;;8.10;99.90;;;;;;5010908;28;20182;-54
2022/12/24 10:14:39;;;;;;;22.87;3.67;;;;;;;;;;4991500;28;20182;-51
2022/12/24 10:17:43;;;;;;;24.97;3.43;;;8.90;99.90;;;;;;4991413;28;20557;-51
2022/12/24 10:20:46;;;;;;;20.67;3.23;;;9.00;99.90;;;;;;4990115;28;20201;-51
2022/12/24 10:23:19;;;;;;;25.30;3.40;;;9.10;99.90;;;;;;4991314;28;20195;-54
2022/12/24 10:26:06;;;;;;;21.70;3.17;;;9.10;99.90;;;;;;5006092;28;20213;-51
2022/12/24 10:29:10;;;;;;;29.97;3.30;;;9.00;99.90;;;;;;5011017;28;20653;-52
2022/12/24 10:31:42;;;;;;;24.60;2.67;;;9.40;99.90;;;;;;5011029;28;20656;-52
2022/12/24 10:34:20;;;;;;;16.93;2.80;;;9.20;99.90;;;;;;5011047;28;20193;-52
2022/12/24 10:36:46;;;;;;;21.53;3.27;;;;;;;;;;5010929;28;20170;-52
2022/12/24 10:39:21;;;;;;;24.03;2.90;;;9.40;99.90;;;;;;5002909;28;20210;-52
2022/12/24 10:41:49;;;;;;;32.53;3.40;;;9.50;99.90;;;;;;4991442;28;20179;-56
2022/12/24 10:44:18;;;;;;;29.00;3.27;;;9.50;99.90;;;;;;4989785;28;20620;-51
2022/12/24 10:46:45;;;;;;;21.07;3.13;;;9.60;99.90;;;;;;5005410;28;20653;-53
2022/12/24 10:49:35;;;;;;;26.57;3.50;;;9.50;99.90;;;;;;5005374;28;20729;-53
2022/12/24 10:52:12;;;;;;;24.13;3.73;;;9.50;99.90;;;;;;5010108;28;20702;-53
2022/12/24 10:55:04;;;;;;;27.00;3.30;;;9.80;99.90;;;;;;5001885;28;20654;-51
2022/12/24 10:57:30;;;;;;;35.90;3.60;;;9.70;99.90;;;;;;5010527;28;20186;-54
2022/12/24 10:59:56;;;;;;;29.63;4.07;;;10.00;99.90;;;;;;5010731;28;20257;-53
2022/12/24 11:02:35;;;;;;;23.87;3.87;;;;;;;;;;5010653;28;20177;-52
2022/12/24 11:05:25;;;;;;;29.70;3.80;;;10.00;99.90;;;;;;5010032;28;20189;-52
2022/12/24 11:08:14;;;;;;;33.37;4.03;;;10.10;99.90;;;;;;5010401;28;20208;-53
2022/12/24 11:10:44;;;;;;;31.20;3.73;;;10.40;99.90;;;;;;5010507;28;20181;-53
2022/12/24 11:13:37;;;;;;;22.53;3.43;;;10.40;99.90;;;;;;5009982;28;20246;-52
2022/12/24 11:16:04;;;;;;;28.43;4.20;;;;;;;;;;5011875;28;20190;-51
2022/12/24 11:18:31;;;;;;;37.80;4.20;;;;;;;;;;5013521;28;20249;-51
2022/12/24 11:20:59;;;;;;;29.80;4.37;;;10.70;99.90;;;;;;5013273;28;20650;-52
2022/12/24 11:23:26;;;;;;;32.40;4.20;;;10.60;99.90;;;;;;5013846;28;20329;-52
2022/12/24 11:25:52;;;;;;;31.07;4.03;;;10.90;99.90;;;;;;5013678;28;20185;-51
2022/12/24 11:28:23;;;;;;;22.70;3.73;;;10.60;99.90;;;;;;5013859;28;20232;-51
2022/12/24 11:30:57;;;;;;;24.00;3.30;;;10.80;99.90;;;;;;5013768;28;20179;-52
2022/12/24 11:33:23;;;;;;;37.67;4.70;;;10.90;99.90;;;;;;5013432;28;20646;-54
2022/12/24 11:35:53;;;;;;;34.03;5.07;;;11.20;99.90;;;;;;5013593;28;20669;-51
2022/12/24 11:38:22;;;;;;;26.20;4.53;;;11.50;99.90;;;;;;5013393;28;20219;-51
2022/12/24 11:40:50;;;;;;;28.50;4.00;;;;;;;;;;5013398;28;20254;-52
2022/12/24 11:43:20;;;;;;;30.43;4.30;;;11.60;99.90;;;;;;5013253;28;20182;-52
2022/12/24 11:45:53;;;;;;;34.40;4.77;;;11.70;99.90;;;;;;5009721;28;20240;-52
2022/12/24 11:48:30;;;;;;;25.67;4.27;;;12.40;99.90;;;;;;5012954;28;20167;-50
2022/12/24 11:51:17;;;;;;;30.17;4.50;;;13.10;99.90;;;;;;5011194;28;20209;-51
2022/12/24 11:54:03;;;;;;;24.67;4.40;;;13.60;99.90;;;;;;5012425;28;20380;-50
2022/12/24 11:56:37;;;;;;;24.80;3.43;;;12.70;99.90;;;;;;4996286;28;20206;-50
2022/12/24 11:59:32;;;;;;;25.27;4.20;;;12.60;99.90;;;;;;4993558;28;20711;-50
2022/12/24 12:02:19;;;;;;;31.97;3.57;;;12.20;99.90;;;;;;4988884;28;20626;-50
2022/12/24 12:04:56;;;;;;;27.17;3.87;;;10.70;99.90;;;;;;5004993;28;20269;-50
2022/12/24 12:07:27;;;;;;;32.83;4.43;;;12.50;99.90;;;;;;5012908;28;20179;-54
2022/12/24 12:10:17;;;;;;;33.30;4.43;;;12.80;99.90;;;;;;5013051;28;20174;-50
2022/12/24 12:12:54;;;;;;;27.20;3.77;;;12.40;99.90;;;;;;5012131;28;20183;-50
2022/12/24 12:15:24;;;;;;;21.97;3.77;;;12.40;99.90;;;;;;5012464;28;20181;-49
2022/12/24 12:18:05;;;;;;;30.50;4.37;;;13.00;99.90;;;;;;5002207;28;20317;-50
2022/12/24 12:20:58;;;;;;;29.90;3.37;;;13.00;99.90;;;;;;4993175;28;20653;-52
2022/12/24 12:23:36;;;;;;;23.93;3.83;;;;;;;;;;4993268;28;20176;-50
2022/12/24 12:26:12;;;;;;;33.80;3.83;;;;;;;;;;4992897;28;20234;-51
2022/12/24 12:29:07;;;;;;;27.10;3.93;;;13.20;99.90;;;;;;4993051;28;20174;-51
2022/12/24 12:31:47;;;;;;;30.70;3.80;;;13.40;99.90;;;;;;5001004;28;20187;-50
2022/12/24 12:34:14;;;;;;;26.87;3.27;;;;;;;;;;5003374;28;20174;-50
2022/12/24 12:36:48;;;;;;;33.73;4.23;;;13.20;99.90;;;;;;5008775;28;20175;-50
2022/12/24 12:39:14;;;;;;;34.90;4.03;;;13.40;99.90;;;;;;5008271;28;20265;-51
2022/12/24 12:42:13;;;;;;;27.33;4.17;;;13.40;99.90;;;;;;4992999;28;20183;-52
2022/12/24 12:44:50;;;;;;;23.10;4.07;;;12.80;99.90;;;;;;5008037;28;20186;-52
2022/12/24 12:47:19;;;;;;;31.27;4.00;;;12.90;99.90;;;;;;5012250;28;20171;-50
2022/12/24 12:49:45;;;;;;;22.63;3.73;;;;;;;;;;5008824;28;20499;-50
2022/12/24 12:52:28;;;;;;;31.60;4.43;;;12.80;99.90;;;;;;5007760;28;20206;-50
2022/12/24 12:55:32;;;;;;;28.93;4.00;;;13.00;99.90;;;;;;5009666;28;20349;-51
2022/12/24 12:58:07;;;;;;;32.60;4.77;;;13.10;99.90;;;;;;5012061;28;20202;-51
2022/12/24 13:00:37;;;;;;;27.80;4.27;;;13.10;99.90;;;;;;5011823;28;20174;-53
2022/12/24 13:03:26;;;;;;;28.63;4.70;;;;;;;;;;5012151;28;20249;-51
2022/12/24 13:06:29;;;;;;;22.27;4.30;;;13.00;99.90;;;;;;5011477;28;20195;-54
2022/12/24 13:08:55;;;;;;;41.43;4.83;;;;;;;;;;5012019;28;20178;-51
2022/12/24 13:11:21;;;;;;;26.30;4.57;;;;;;;;;;5011734;28;20287;-53
2022/12/24 13:13:47;;;;;;;24.52;3.83;;;;;;;;;;5011809;28;20210;-50
2022/12/24 13:16:56;;;;;;;35.58;4.50;;;15.80;99.90;;;;;;5011814;28;20171;-54
2022/12/24 13:19:22;;;;;;;35.63;4.65;;;17.60;99.90;;;;;;5011511;28;20612;-49
2022/12/24 13:21:49;;;;;;;27.15;4.38;;;17.90;99.90;;;;;;5011148;28;20633;-52
2022/12/24 13:24:21;;;;;;;31.02;4.35;;;18.30;99.90;;;;;;5011619;28;20186;-52
2022/12/24 13:27:15;;;;;;;29.73;4.35;;;18.20;99.90;;;;;;5011203;28;20179;-52
2022/12/24 13:29:42;;;;;;;22.10;3.55;;;18.10;99.90;;;;;;5010632;28;20167;-55
2022/12/24 13:32:50;;;;;;;23.08;4.20;;;17.20;99.90;;;;;;5011548;28;20167;-51
2022/12/24 13:35:18;;;;;;;22.40;3.67;;;16.50;99.90;;;;;;5009355;28;20178;-51
2022/12/24 13:37:45;;;;;;;24.25;4.28;;;;;;;;;;5009677;28;20186;-52
2022/12/24 13:40:10;;;;;;;18.50;3.33;;;16.70;99.90;;;;;;5010287;28;20183;-51
2022/12/24 13:42:58;;;;;;;28.48;4.47;;;16.70;99.90;;;;;;5011448;28;20217;-52
2022/12/24 13:45:30;;;;;;;28.02;3.72;;;17.30;99.90;;;;;;5009919;28;20263;-51
2022/12/24 13:47:56;;;;;;;24.25;3.95;;;;;;;;;;5010631;28;20178;-52